createdAt,value
2019-06-27T00:02:08.865Z,98537.64
2019-06-27T00:04:38.377Z,98537.53
2019-06-27T00:07:07.884Z,98537.43
2019-06-27T00:09:37.285Z,98537.99
2019-06-27T00:12:06.750Z,98536.77
2019-06-27T00:14:36.368Z,98536.66
2019-06-27T00:17:05.970Z,98537.44
2019-06-27T00:19:35.439Z,98541.17
2019-06-27T00:22:04.980Z,98548.41
2019-06-27T00:24:34.565Z,98547.64
2019-06-27T00:27:04.025Z,98547.17
2019-06-27T00:29:33.536Z,98544.67
2019-06-27T00:32:03.026Z,98544.09
2019-06-27T00:34:32.583Z,98543.91
2019-06-27T00:37:02.011Z,98543.54
2019-06-27T00:39:31.532Z,98539.34
2019-06-27T00:42:01.018Z,98538.97
2019-06-27T00:44:30.512Z,98535.33
2019-06-27T00:46:59.975Z,98536.87
2019-06-27T00:49:29.492Z,98536.97
2019-06-27T00:51:58.977Z,98539.91
2019-06-27T00:54:28.389Z,98539.24
2019-06-27T00:57:13.080Z,98548.20
2019-06-27T00:59:29.083Z,98545.73
2019-06-27T01:01:58.509Z,98547.69
2019-06-27T01:04:28.130Z,98550.70
2019-06-27T01:06:57.629Z,98551.54
2019-06-27T01:09:27.030Z,98552.30
2019-06-27T01:11:56.494Z,98547.17
2019-06-27T01:14:26.017Z,98538.97
2019-06-27T01:16:55.513Z,98536.51
2019-06-27T01:19:24.997Z,98542.77
2019-06-27T01:21:54.418Z,98542.50
2019-06-27T01:24:23.979Z,98544.50
2019-06-27T01:26:53.473Z,98533.08
2019-06-27T01:29:22.884Z,98536.51
2019-06-27T01:31:52.327Z,98538.88
2019-06-27T01:34:21.853Z,98536.88
2019-06-27T01:36:51.383Z,98537.95
2019-06-27T01:39:20.887Z,98535.08
2019-06-27T01:41:50.380Z,98522.78
2019-06-27T01:44:37.288Z,98517.75
2019-06-27T01:47:07.430Z,98518.02
2019-06-27T01:49:36.946Z,98517.08
2019-06-27T01:52:06.572Z,98514.77
2019-06-27T01:54:35.964Z,98514.20
2019-06-27T01:57:05.723Z,98504.66
2019-06-27T01:59:35.280Z,98511.23
2019-06-27T02:02:05.159Z,98506.21
2019-06-27T02:04:34.719Z,98509.91
2019-06-27T02:07:04.265Z,98511.73
2019-06-27T02:09:33.784Z,98505.64
2019-06-27T02:12:03.309Z,98514.50
2019-06-27T02:14:32.710Z,98516.87
2019-06-27T02:17:02.141Z,98514.30
2019-06-27T02:19:31.646Z,98515.90
2019-06-27T02:22:01.096Z,98514.56
2019-06-27T02:24:30.640Z,98519.52
2019-06-27T02:27:00.137Z,98526.78
2019-06-27T02:29:29.557Z,98524.77
2019-06-27T02:31:58.996Z,98522.77
2019-06-27T02:34:28.546Z,98522.67
2019-06-27T02:36:58.070Z,98516.47
2019-06-27T02:39:27.485Z,98519.14
2019-06-27T02:41:56.862Z,98512.01
2019-06-27T02:44:26.407Z,98515.18
2019-06-27T02:46:55.894Z,98514.62
2019-06-27T02:49:25.434Z,98508.52
2019-06-27T02:51:54.930Z,98503.55
2019-06-27T02:54:24.449Z,98496.69
2019-06-27T02:56:53.941Z,98492.13
2019-06-27T02:59:23.341Z,98490.02
2019-06-27T03:01:52.791Z,98492.77
2019-06-27T03:04:22.294Z,98491.53
2019-06-27T03:06:51.908Z,98490.86
2019-06-27T03:09:21.311Z,98487.62
2019-06-27T03:11:50.736Z,98484.45
2019-06-27T03:14:20.279Z,98484.39
2019-06-27T03:16:49.781Z,98481.98
2019-06-27T03:19:19.204Z,98484.30
2019-06-27T03:21:48.645Z,98491.84
2019-06-27T03:24:18.157Z,98490.19
2019-06-27T03:26:47.678Z,98485.22
2019-06-27T03:29:20.174Z,98489.02
2019-06-27T03:31:48.279Z,98485.98
2019-06-27T03:34:18.102Z,98482.08
2019-06-27T03:36:47.584Z,98489.89
2019-06-27T03:39:17.055Z,98491.90
2019-06-27T03:41:46.627Z,98487.13
2019-06-27T03:44:16.044Z,98484.51
2019-06-27T03:46:45.477Z,98483.35
2019-06-27T03:49:15.000Z,98483.40
2019-06-27T03:51:44.525Z,98476.16
2019-06-27T03:54:13.925Z,98476.98
2019-06-27T03:56:43.347Z,98482.44
2019-06-27T03:59:13.969Z,98481.77
2019-06-27T04:01:43.644Z,98474.52
2019-06-27T04:04:13.091Z,98479.48
2019-06-27T04:06:42.512Z,98472.84
2019-06-27T04:09:12.026Z,98473.02
2019-06-27T04:11:41.656Z,98465.80
2019-06-27T04:14:11.058Z,98462.44
2019-06-27T04:16:41.975Z,98464.45
2019-06-27T04:19:12.752Z,98463.97
2019-06-27T04:21:43.520Z,98470.94
2019-06-27T04:24:14.766Z,98464.95
2019-06-27T04:26:45.457Z,98469.03
2019-06-27T04:29:33.052Z,98469.79
2019-06-27T04:31:48.800Z,98466.92
2019-06-27T04:34:20.457Z,98473.98
2019-06-27T04:36:51.632Z,98470.50
2019-06-27T04:39:22.434Z,98481.55
2019-06-27T04:41:53.357Z,98473.59
2019-06-27T04:44:24.072Z,98473.42
2019-06-27T04:46:54.760Z,98463.54
2019-06-27T04:49:25.624Z,98459.14
2019-06-27T04:51:56.272Z,98465.23
2019-06-27T04:54:26.912Z,98467.61
2019-06-27T04:56:57.796Z,98463.03
2019-06-27T04:59:28.426Z,98475.59
2019-06-27T05:20:38.718Z,98469.12
2019-06-27T05:23:08.132Z,98476.91
2019-06-27T05:25:37.761Z,98465.37
2019-06-27T05:28:07.473Z,98464.71
2019-06-27T05:30:37.195Z,98466.16
2019-06-27T05:33:06.665Z,98461.20
2019-06-27T05:35:36.492Z,98463.48
2019-06-27T05:38:05.914Z,98452.27
2019-06-27T05:40:35.338Z,98445.66
2019-06-27T05:43:05.021Z,98448.14
2019-06-27T05:45:34.847Z,98447.16
2019-06-27T05:48:04.401Z,98450.25
2019-06-27T05:50:34.157Z,98448.44
2019-06-27T05:53:03.917Z,98445.25
2019-06-27T05:55:33.767Z,98449.68
2019-06-27T05:58:03.405Z,98448.24
2019-06-27T06:00:33.063Z,98450.09
2019-06-27T06:03:02.603Z,98435.73
2019-06-27T06:05:32.244Z,98437.55
2019-06-27T06:08:01.960Z,98435.00
2019-06-27T06:10:31.634Z,98432.77
2019-06-27T06:13:01.314Z,98425.47
2019-06-27T06:15:30.917Z,98420.98
2019-06-27T06:18:00.540Z,98426.60
2019-06-27T06:20:30.222Z,98430.27
2019-06-27T06:23:00.070Z,98425.04
2019-06-27T06:25:29.804Z,98424.11
2019-06-27T06:27:59.477Z,98414.61
2019-06-27T06:30:43.228Z,98418.98
2019-06-27T06:33:00.543Z,98416.28
2019-06-27T06:35:30.035Z,98412.00
2019-06-27T06:37:59.566Z,98406.16
2019-06-27T06:40:29.393Z,98401.73
2019-06-27T06:43:00.613Z,98400.27
2019-06-27T06:45:30.482Z,98391.48
2019-06-27T06:47:59.927Z,98384.06
2019-06-27T06:50:29.716Z,98390.75
2019-06-27T06:52:59.469Z,98384.39
2019-06-27T06:55:29.222Z,98378.53
2019-06-27T06:57:58.808Z,98372.48
2019-06-27T07:00:28.691Z,98371.61
2019-06-27T07:02:58.511Z,98372.48
2019-06-27T07:05:28.039Z,98366.03
2019-06-27T07:07:57.555Z,98370.92
2019-06-27T07:10:27.287Z,98361.48
2019-06-27T07:12:57.128Z,98363.55
2019-06-27T07:15:26.672Z,98363.27
2019-06-27T07:17:56.455Z,98355.03
2019-06-27T07:20:26.128Z,98353.53
2019-06-27T07:22:55.602Z,98353.02
2019-06-27T07:25:25.164Z,98342.53
2019-06-27T07:27:54.857Z,98338.53
2019-06-27T07:30:24.633Z,98337.91
2019-06-27T07:32:54.445Z,98335.34
2019-06-27T07:35:24.311Z,98327.52
2019-06-27T07:37:54.116Z,98325.42
2019-06-27T07:40:23.871Z,98326.28
2019-06-27T07:42:53.590Z,98322.56
2019-06-27T07:45:23.014Z,98327.77
2019-06-27T07:47:52.808Z,98325.09
2019-06-27T07:50:22.550Z,98318.09
2019-06-27T07:52:52.053Z,98319.90
2019-06-27T07:55:23.504Z,98315.48
2019-06-27T07:57:52.949Z,98307.75
2019-06-27T08:00:23.643Z,98306.91
2019-06-27T08:02:53.327Z,98308.44
2019-06-27T08:05:22.907Z,98308.16
2019-06-27T08:07:52.328Z,98303.95
2019-06-27T08:10:22.091Z,98301.90
2019-06-27T08:12:51.938Z,98299.98
2019-06-27T08:15:21.991Z,98297.05
2019-06-27T08:17:51.675Z,98294.45
2019-06-27T08:20:21.568Z,98288.16
2019-06-27T08:22:51.280Z,98282.37
2019-06-27T08:25:21.117Z,98284.80
2019-06-27T08:27:51.001Z,98280.48
2019-06-27T08:30:21.730Z,98278.64
2019-06-27T08:32:51.443Z,98280.11
2019-06-27T08:35:20.963Z,98275.70
2019-06-27T08:37:50.555Z,98268.63
2019-06-27T08:40:20.109Z,98273.94
2019-06-27T08:42:49.808Z,98272.74
2019-06-27T08:45:19.582Z,98273.79
2019-06-27T08:47:49.394Z,98272.22
2019-06-27T08:50:20.599Z,98265.30
2019-06-27T08:52:50.394Z,98257.33
2019-06-27T08:55:20.052Z,98252.31
2019-06-27T08:57:49.766Z,98252.91
2019-06-27T09:00:19.903Z,98247.78
2019-06-27T09:02:49.619Z,98247.73
2019-06-27T09:05:19.216Z,98249.48
2019-06-27T09:07:48.805Z,98240.75
2019-06-27T09:10:18.722Z,98245.23
2019-06-27T09:12:48.594Z,98243.38
2019-06-27T09:15:18.332Z,98239.51
2019-06-27T09:17:48.143Z,98228.47
2019-06-27T09:20:17.843Z,98228.47
2019-06-27T09:22:47.242Z,98216.59
2019-06-27T09:25:16.919Z,98217.01
2019-06-27T09:27:46.786Z,98217.01
2019-06-27T09:30:17.024Z,98215.31
2019-06-27T09:32:46.591Z,98215.31
2019-06-27T09:35:16.545Z,98220.66
2019-06-27T09:37:46.336Z,98217.53
2019-06-27T09:40:16.160Z,98216.61
2019-06-27T09:42:46.097Z,98204.83
2019-06-27T09:45:16.053Z,98206.67
2019-06-27T09:47:45.905Z,98207.92
2019-06-27T09:50:16.207Z,98209.58
2019-06-27T09:52:45.612Z,98205.55
2019-06-27T09:55:15.264Z,98199.36
2019-06-27T09:57:44.651Z,98194.49
2019-06-27T10:00:14.821Z,98186.69
2019-06-27T10:02:44.523Z,98188.16
2019-06-27T10:05:13.920Z,98187.00
2019-06-27T10:07:43.412Z,98185.13
2019-06-27T10:10:14.039Z,98187.28
2019-06-27T10:12:43.570Z,98186.30
2019-06-27T10:15:14.176Z,98183.77
2019-06-27T10:17:43.582Z,98173.45
2019-06-27T10:20:14.660Z,98178.27
2019-06-27T10:22:44.328Z,98171.97
2019-06-27T10:25:14.172Z,98179.20
2019-06-27T10:27:43.885Z,98174.00
2019-06-27T10:30:13.933Z,98172.16
2019-06-27T10:32:57.720Z,98167.13
2019-06-27T10:35:14.903Z,98169.52
2019-06-27T10:37:44.541Z,98159.09
2019-06-27T10:40:14.247Z,98155.44
2019-06-27T10:42:43.880Z,98156.77
2019-06-27T10:45:13.700Z,98160.76
2019-06-27T10:47:43.423Z,98149.23
2019-06-27T10:50:13.293Z,98153.17
2019-06-27T10:52:42.699Z,98145.98
2019-06-27T10:55:13.605Z,98140.08
2019-06-27T10:57:43.317Z,98134.23
2019-06-27T11:00:12.912Z,98133.61
2019-06-27T11:02:42.675Z,98127.74
2019-06-27T11:05:12.218Z,98125.23
2019-06-27T11:07:42.300Z,98117.56
2019-06-27T11:10:11.845Z,98115.20
2019-06-27T11:12:44.868Z,98112.24
2019-06-27T11:15:12.975Z,98109.27
2019-06-27T11:17:42.366Z,98109.80
2019-06-27T11:20:15.269Z,98106.16
2019-06-27T11:22:44.370Z,98108.39
2019-06-27T11:25:14.522Z,98098.21
2019-06-27T11:27:44.364Z,98103.66
2019-06-27T11:30:14.684Z,98096.24
2019-06-27T11:32:44.327Z,98093.02
2019-06-27T11:35:13.961Z,98087.35
2019-06-27T11:37:43.614Z,98093.17
2019-06-27T11:40:13.247Z,98081.05
2019-06-27T11:42:42.679Z,98085.09
2019-06-27T11:45:12.619Z,98080.63
2019-06-27T11:47:42.395Z,98079.52
2019-06-27T11:50:12.267Z,98068.52
2019-06-27T11:52:42.007Z,98065.19
2019-06-27T11:55:11.503Z,98060.86
2019-06-27T11:57:41.199Z,98059.50
2019-06-27T12:00:11.361Z,98057.97
2019-06-27T12:02:40.762Z,98053.03
2019-06-27T12:05:10.341Z,98042.53
2019-06-27T12:07:39.938Z,98042.44
2019-06-27T12:10:10.624Z,98042.50
2019-06-27T12:12:40.068Z,98040.64
2019-06-27T12:15:09.798Z,98031.12
2019-06-27T12:17:39.839Z,98028.82
2019-06-27T12:20:10.373Z,98028.15
2019-06-27T12:22:39.920Z,98023.75
2019-06-27T12:25:09.982Z,98009.12
2019-06-27T12:27:39.802Z,98007.33
2019-06-27T12:30:09.797Z,98003.59
2019-06-27T12:32:51.194Z,98008.25
2019-06-27T12:35:11.042Z,97998.28
2019-06-27T12:37:40.456Z,98001.10
2019-06-27T12:40:10.195Z,98003.02
2019-06-27T12:42:39.900Z,97992.69
2019-06-27T12:45:09.813Z,97994.67
2019-06-27T12:47:39.473Z,97993.25
2019-06-27T12:50:09.277Z,97986.33
2019-06-27T12:52:39.165Z,97984.95
2019-06-27T12:55:08.846Z,97984.09
2019-06-27T12:57:38.507Z,97979.45
2019-06-27T13:00:09.173Z,97967.84
2019-06-27T13:02:39.023Z,97959.69
2019-06-27T13:05:08.425Z,97960.41
2019-06-27T13:07:38.138Z,97964.70
2019-06-27T13:10:08.273Z,97957.95
2019-06-27T13:12:38.154Z,97950.66
2019-06-27T13:15:07.934Z,97956.95
2019-06-27T13:17:37.319Z,97948.47
2019-06-27T13:20:07.852Z,97941.99
2019-06-27T13:22:37.729Z,97940.66
2019-06-27T13:25:07.237Z,97937.48
2019-06-27T13:27:36.910Z,97938.59
2019-06-27T13:30:07.245Z,97930.68
2019-06-27T13:32:36.940Z,97927.90
2019-06-27T13:35:06.936Z,97925.29
2019-06-27T13:37:36.272Z,97925.56
2019-06-27T13:40:06.274Z,97917.13
2019-06-27T13:42:38.368Z,97909.44
2019-06-27T13:45:07.274Z,97914.33
2019-06-27T13:47:36.983Z,97912.27
2019-06-27T13:50:06.851Z,97902.39
2019-06-27T13:52:36.313Z,97903.25
2019-06-27T13:55:06.410Z,97899.71
2019-06-27T13:57:35.819Z,97891.64
2019-06-27T14:00:06.317Z,97889.18
2019-06-27T14:02:35.823Z,97885.12
2019-06-27T14:05:05.762Z,97875.53
2019-06-27T14:07:35.588Z,97868.94
2019-06-27T14:10:05.518Z,97858.52
2019-06-27T14:12:34.926Z,97858.08
2019-06-27T14:15:04.815Z,97853.16
2019-06-27T14:17:34.680Z,97850.23
2019-06-27T14:20:04.441Z,97845.58
2019-06-27T14:22:34.324Z,97837.41
2019-06-27T14:25:04.067Z,97826.98
2019-06-27T14:27:33.670Z,97825.84
2019-06-27T14:30:03.174Z,97817.73
2019-06-27T14:32:32.865Z,97818.67
2019-06-27T14:35:14.645Z,97813.72
2019-06-27T14:37:34.140Z,97814.23
2019-06-27T14:40:03.974Z,97811.86
2019-06-27T14:42:33.435Z,97805.19
2019-06-27T14:45:03.162Z,97804.18
2019-06-27T14:47:32.861Z,97799.85
2019-06-27T14:50:02.387Z,97799.14
2019-06-27T14:52:34.833Z,97791.05
2019-06-27T14:55:03.144Z,97785.22
2019-06-27T14:57:32.541Z,97780.94
2019-06-27T15:00:02.408Z,97775.08
2019-06-27T15:02:31.961Z,97775.49
2019-06-27T15:05:01.523Z,97766.05
2019-06-27T15:07:31.384Z,97763.38
2019-06-27T15:10:01.267Z,97758.92
2019-06-27T15:12:30.722Z,97754.67
2019-06-27T15:15:00.394Z,97748.10
2019-06-27T15:17:29.938Z,97745.95
2019-06-27T15:19:59.611Z,97736.83
2019-06-27T15:22:31.541Z,97738.69
2019-06-27T15:25:01.376Z,97735.70
2019-06-27T15:27:31.033Z,97735.83
2019-06-27T15:30:00.776Z,97725.67
2019-06-27T15:32:30.479Z,97732.41
2019-06-27T15:35:00.162Z,97723.45
2019-06-27T15:37:29.820Z,97721.06
2019-06-27T15:39:59.377Z,97710.98
2019-06-27T15:42:29.026Z,97706.02
2019-06-27T15:44:58.445Z,97702.64
2019-06-27T15:47:28.388Z,97703.06
2019-06-27T15:49:58.156Z,97695.62
2019-06-27T15:52:27.741Z,97698.81
2019-06-27T15:54:57.512Z,97691.78
2019-06-27T15:57:27.284Z,97693.26
2019-06-27T15:59:56.877Z,97683.35
2019-06-27T16:02:26.709Z,97689.84
2019-06-27T16:04:56.411Z,97680.25
2019-06-27T16:07:25.986Z,97684.05
2019-06-27T16:09:55.715Z,97684.36
2019-06-27T16:12:26.067Z,97682.34
2019-06-27T16:14:55.851Z,97684.95
2019-06-27T16:17:25.247Z,97686.51
2019-06-27T16:19:55.025Z,97690.63
2019-06-27T16:22:24.848Z,97689.77
2019-06-27T16:24:54.407Z,97692.02
2019-06-27T16:27:23.856Z,97688.66
2019-06-27T16:29:53.598Z,97683.31
2019-06-27T16:32:23.319Z,97686.66
2019-06-27T16:34:53.047Z,97683.47
2019-06-27T16:37:22.467Z,97680.64
2019-06-27T16:39:52.314Z,97679.86
2019-06-27T16:42:21.755Z,97691.91
2019-06-27T16:44:51.439Z,97685.15
2019-06-27T16:47:21.300Z,97680.11
2019-06-27T16:49:51.017Z,97681.14
2019-06-27T16:52:20.632Z,97680.00
2019-06-27T16:54:50.050Z,97670.39
2019-06-27T16:57:19.862Z,97677.50
2019-06-27T16:59:49.598Z,97677.37
2019-06-27T17:02:19.179Z,97668.09
2019-06-27T17:04:48.789Z,97667.64
2019-06-27T17:07:18.561Z,97667.64
2019-06-27T17:09:48.094Z,97656.34
2019-06-27T17:12:17.490Z,97659.72
2019-06-27T17:14:47.379Z,97648.63
2019-06-27T17:17:17.067Z,97634.94
2019-06-27T17:19:48.518Z,97638.14
2019-06-27T17:22:18.087Z,97639.03
2019-06-27T17:24:47.818Z,97645.80
2019-06-27T17:27:17.490Z,97645.80
2019-06-27T17:29:46.925Z,97641.41
2019-06-27T17:32:16.774Z,97647.17
2019-06-27T17:34:46.315Z,97647.38
2019-06-27T17:37:18.565Z,97647.19
2019-06-27T17:39:46.938Z,97643.31
2019-06-27T17:42:16.744Z,97645.51
2019-06-27T17:44:46.224Z,97640.27
2019-06-27T17:47:15.931Z,97642.98
2019-06-27T17:49:49.008Z,97643.64
2019-06-27T17:52:17.071Z,97642.31
2019-06-27T17:54:46.866Z,97641.62
2019-06-27T17:57:16.313Z,97641.12
2019-06-27T17:59:45.907Z,97642.66
2019-06-27T18:02:15.561Z,97641.28
2019-06-27T18:04:45.235Z,97641.41
2019-06-27T18:07:15.325Z,97644.59
2019-06-27T18:09:44.834Z,97645.61
2019-06-27T18:12:14.646Z,97645.63
2019-06-27T18:14:44.065Z,97648.47
2019-06-27T18:17:13.610Z,97657.73
2019-06-27T18:19:43.531Z,97663.96
2019-06-27T18:22:13.229Z,97667.98
2019-06-27T18:24:43.056Z,97670.83
2019-06-27T18:27:12.560Z,97671.83
2019-06-27T18:29:42.111Z,97676.53
2019-06-27T18:32:11.811Z,97676.64
2019-06-27T18:34:41.492Z,97678.69
2019-06-27T18:37:11.301Z,97684.55
2019-06-27T18:39:40.795Z,97687.19
2019-06-27T18:42:10.586Z,97694.09
2019-06-27T18:44:40.405Z,97688.67
2019-06-27T18:47:10.245Z,97691.98
2019-06-27T18:49:40.079Z,97700.89
2019-06-27T18:52:10.038Z,97692.45
2019-06-27T18:54:39.466Z,97692.45
2019-06-27T18:57:08.976Z,97690.94
2019-06-27T18:59:38.496Z,97694.45
2019-06-27T19:02:08.102Z,97701.80
2019-06-27T19:04:37.882Z,97700.66
2019-06-27T19:07:07.642Z,97707.52
2019-06-27T19:09:37.411Z,97704.86
2019-06-27T19:12:07.094Z,97695.76
2019-06-27T19:14:37.021Z,97703.52
2019-06-27T19:17:06.827Z,97701.34
2019-06-27T19:19:37.910Z,97707.55
2019-06-27T19:22:26.649Z,97714.98
2019-06-27T19:25:21.481Z,97711.92
2019-06-27T19:27:51.125Z,97716.33
2019-06-27T19:30:21.003Z,97720.66
2019-06-27T19:32:50.781Z,97726.53
2019-06-27T19:35:20.662Z,97722.49
2019-06-27T19:38:01.511Z,97733.20
2019-06-27T19:40:21.632Z,97729.44
2019-06-27T19:42:51.485Z,97730.62
2019-06-27T19:45:21.452Z,97735.31
2019-06-27T19:47:50.847Z,97736.13
2019-06-27T19:50:20.665Z,97739.17
2019-06-27T19:52:50.213Z,97740.32
2019-06-27T19:55:20.136Z,97747.17
2019-06-27T19:57:49.753Z,97751.70
2019-06-27T20:00:20.020Z,97756.06
2019-06-27T20:02:49.788Z,97754.49
2019-06-27T20:05:19.431Z,97754.77
2019-06-27T20:07:49.253Z,97760.30
2019-06-27T20:10:19.176Z,97761.60
2019-06-27T20:12:48.846Z,97762.41
2019-06-27T20:15:18.824Z,97765.89
2019-06-27T20:17:48.804Z,97775.33
2019-06-27T20:20:18.809Z,97774.31
2019-06-27T20:22:48.482Z,97772.62
2019-06-27T20:25:18.478Z,97774.19
2019-06-27T20:27:48.249Z,97776.39
2019-06-27T20:30:19.644Z,97778.38
2019-06-27T20:32:49.175Z,97774.80
2019-06-27T20:35:18.600Z,97772.25
2019-06-27T20:37:48.499Z,97770.51
2019-06-27T20:40:18.674Z,97760.33
2019-06-27T20:42:48.486Z,97762.72
2019-06-27T20:45:18.451Z,97761.28
2019-06-27T20:47:49.795Z,97763.33
2019-06-27T20:50:19.789Z,97765.47
2019-06-27T20:52:49.883Z,97762.87
2019-06-27T20:55:19.745Z,97753.52
2019-06-27T20:57:49.241Z,97750.53
2019-06-27T21:00:18.867Z,97751.39
2019-06-27T21:02:48.342Z,97755.60
2019-06-27T21:05:17.838Z,97752.43
2019-06-27T21:07:47.329Z,97750.75
2019-06-27T21:10:17.527Z,97749.03
2019-06-27T21:12:47.226Z,97746.34
2019-06-27T21:15:17.135Z,97745.64
2019-06-27T21:17:47.255Z,97740.48
2019-06-27T21:20:17.225Z,97739.63
2019-06-27T21:22:46.826Z,97740.94
2019-06-27T21:25:16.357Z,97742.92
2019-06-27T21:27:45.994Z,97741.06
2019-06-27T21:30:16.314Z,97741.21
2019-06-27T21:32:48.285Z,97736.30
2019-06-27T21:35:17.022Z,97743.88
2019-06-27T21:37:46.498Z,97746.83
2019-06-27T21:40:17.502Z,97740.26
2019-06-27T21:42:47.314Z,97739.77
2019-06-27T21:45:16.796Z,97741.75
2019-06-27T21:47:46.446Z,97745.38
2019-06-27T21:50:16.116Z,97734.30
2019-06-27T21:52:45.686Z,97738.81
2019-06-27T21:55:15.641Z,97737.55
2019-06-27T21:57:45.102Z,97742.07
2019-06-27T22:00:14.819Z,97740.39
2019-06-27T22:02:44.654Z,97746.77
2019-06-27T22:05:14.663Z,97737.52
2019-06-27T22:07:44.406Z,97734.31
2019-06-27T22:10:14.170Z,97735.66
2019-06-27T22:12:43.891Z,97727.11
2019-06-27T22:15:14.018Z,97728.45
2019-06-27T22:17:43.384Z,97720.88
2019-06-27T22:20:15.438Z,97705.95
2019-06-27T22:22:45.286Z,97704.77
2019-06-27T22:25:15.812Z,97702.08
2019-06-27T22:27:45.211Z,97700.95
2019-06-27T22:30:15.485Z,97697.25
2019-06-27T22:32:45.276Z,97701.66
2019-06-27T22:35:15.065Z,97700.95
2019-06-27T22:38:02.067Z,97706.02
2019-06-27T22:40:49.471Z,97710.12
2019-06-27T22:43:36.940Z,97698.30
2019-06-27T22:46:24.137Z,97703.33
2019-06-27T22:48:53.006Z,97705.69
2019-06-27T22:51:31.993Z,97698.30
2019-06-27T22:54:02.907Z,97697.96
2019-06-27T22:56:32.386Z,97701.59
2019-06-27T22:59:02.197Z,97700.16
2019-06-27T23:01:31.827Z,97701.50
2019-06-27T23:04:01.297Z,97691.58
2019-06-27T23:06:30.942Z,97700.01
2019-06-27T23:09:00.452Z,97699.80
2019-06-27T23:11:30.017Z,97695.42
2019-06-27T23:13:59.630Z,97689.16
2019-06-27T23:16:29.289Z,97684.28
2019-06-27T23:18:59.009Z,97693.53
2019-06-27T23:21:28.558Z,97688.09
2019-06-27T23:23:58.371Z,97697.64
2019-06-27T23:26:27.938Z,97689.60
2019-06-27T23:28:57.453Z,97679.80
2019-06-27T23:31:27.126Z,97686.30
2019-06-27T23:33:56.906Z,97675.63
2019-06-27T23:36:26.522Z,97665.19
2019-06-27T23:38:56.097Z,97658.14
2019-06-27T23:41:25.670Z,97652.41
2019-06-27T23:43:55.515Z,97658.78
2019-06-27T23:46:43.741Z,97656.92
2019-06-27T23:49:13.405Z,97649.94
2019-06-27T23:51:43.143Z,97660.16
2019-06-27T23:54:12.619Z,97658.58
2019-06-27T23:56:42.203Z,97651.72
2019-06-27T23:59:11.782Z,97647.20
